createdAt,value
2018-04-26T00:01:24.095Z,10.70
2018-04-26T00:03:50.481Z,10.69
2018-04-26T00:06:16.903Z,10.64
2018-04-26T00:08:43.338Z,10.63
2018-04-26T00:11:09.761Z,10.66
2018-04-26T00:13:36.180Z,10.62
2018-04-26T00:16:02.558Z,10.62
2018-04-26T00:18:28.935Z,10.53
2018-04-26T00:20:55.254Z,10.49
2018-04-26T00:23:21.624Z,10.49
2018-04-26T00:25:48.187Z,10.46
2018-04-26T00:28:14.510Z,10.37
2018-04-26T00:30:40.890Z,10.35
2018-04-26T00:33:07.272Z,10.31
2018-04-26T00:35:33.734Z,10.32
2018-04-26T00:38:00.163Z,10.30
2018-04-26T00:40:26.612Z,10.29
2018-04-26T00:42:53.002Z,10.28
2018-04-26T00:45:19.431Z,10.31
2018-04-26T00:47:45.783Z,10.31
2018-04-26T00:50:12.213Z,10.26
2018-04-26T00:52:38.617Z,10.24
2018-04-26T00:55:05.083Z,10.21
2018-04-26T00:57:31.452Z,10.19
2018-04-26T00:59:57.836Z,10.15
2018-04-26T01:02:24.187Z,10.14
2018-04-26T01:04:50.708Z,10.11
2018-04-26T01:07:17.025Z,10.13
2018-04-26T01:09:43.420Z,10.11
2018-04-26T01:12:09.736Z,10.08
2018-04-26T01:14:36.102Z,10.07
2018-04-26T01:17:02.529Z,10.09
2018-04-26T01:19:28.817Z,10.03
2018-04-26T01:21:55.210Z,9.96
2018-04-26T01:24:21.723Z,9.97
2018-04-26T01:26:48.120Z,9.89
2018-04-26T01:29:14.457Z,9.91
2018-04-26T01:31:40.851Z,9.89
2018-04-26T01:34:07.322Z,9.90
2018-04-26T01:36:45.746Z,9.90
2018-04-26T01:39:12.160Z,9.82
2018-04-26T01:41:38.469Z,9.75
2018-04-26T01:44:06.006Z,9.69
2018-04-26T01:46:32.310Z,9.62
2018-04-26T01:48:58.701Z,9.65
2018-04-26T01:51:25.083Z,9.80
2018-04-26T01:53:51.445Z,9.65
2018-04-26T01:56:17.878Z,9.61
2018-04-26T01:58:44.237Z,9.65
2018-04-26T02:01:10.564Z,9.52
2018-04-26T02:03:36.873Z,9.56
2018-04-26T02:06:03.392Z,9.53
2018-04-26T02:08:29.756Z,9.48
2018-04-26T02:10:56.112Z,9.44
2018-04-26T02:13:22.480Z,9.45
2018-04-26T02:15:49.916Z,9.46
2018-04-26T02:18:16.242Z,9.44
2018-04-26T02:20:42.612Z,9.52
2018-04-26T02:23:09.038Z,9.48
2018-04-26T02:25:35.555Z,9.45
2018-04-26T02:28:02.040Z,9.33
2018-04-26T02:30:28.392Z,9.32
2018-04-26T02:32:54.804Z,9.46
2018-04-26T02:35:21.267Z,9.41
2018-04-26T02:37:47.608Z,9.24
2018-04-26T02:40:14.021Z,9.15
2018-04-26T02:42:40.460Z,9.10
2018-04-26T02:45:06.959Z,8.97
2018-04-26T02:47:33.311Z,8.95
2018-04-26T02:49:59.817Z,9.06
2018-04-26T02:52:26.233Z,8.91
2018-04-26T02:54:52.625Z,8.89
2018-04-26T02:57:19.036Z,8.88
2018-04-26T02:59:45.351Z,8.85
2018-04-26T03:02:11.700Z,8.87
2018-04-26T03:04:38.217Z,8.87
2018-04-26T03:07:04.578Z,8.85
2018-04-26T03:09:30.924Z,8.83
2018-04-26T03:11:57.390Z,8.82
2018-04-26T03:14:23.874Z,8.78
2018-04-26T03:16:50.203Z,8.82
2018-04-26T03:19:16.571Z,8.79
2018-04-26T03:21:42.883Z,8.80
2018-04-26T03:24:09.328Z,8.86
2018-04-26T03:26:35.673Z,8.90
2018-04-26T03:29:02.061Z,8.97
2018-04-26T03:31:28.417Z,8.93
2018-04-26T03:33:54.764Z,9.01
2018-04-26T03:36:21.187Z,9.06
2018-04-26T03:38:47.555Z,9.14
2018-04-26T03:41:13.948Z,9.15
2018-04-26T03:43:40.398Z,9.20
2018-04-26T03:46:06.902Z,9.32
2018-04-26T03:48:33.415Z,9.43
2018-04-26T03:50:59.854Z,9.50
2018-04-26T03:53:26.275Z,9.49
2018-04-26T03:55:52.836Z,9.71
2018-04-26T03:58:19.285Z,10.16
2018-04-26T04:00:57.948Z,11.04
2018-04-26T04:03:36.692Z,12.11
2018-04-26T04:06:12.247Z,12.78
2018-04-26T04:08:38.711Z,13.54
2018-04-26T04:11:05.209Z,13.91
2018-04-26T04:13:31.655Z,13.63
2018-04-26T04:15:58.196Z,13.89
2018-04-26T04:18:24.576Z,13.83
2018-04-26T04:20:51.312Z,14.50
2018-04-26T04:23:18.355Z,15.12
2018-04-26T04:25:44.815Z,15.47
2018-04-26T04:28:11.153Z,15.47
2018-04-26T04:30:37.505Z,15.55
2018-04-26T04:33:03.906Z,16.16
2018-04-26T04:35:30.329Z,16.50
2018-04-26T04:37:56.826Z,16.45
2018-04-26T04:40:23.152Z,15.97
2018-04-26T04:42:49.500Z,15.11
2018-04-26T04:45:17.118Z,14.74
2018-04-26T04:47:43.498Z,14.64
2018-04-26T04:50:09.866Z,14.75
2018-04-26T04:52:36.541Z,15.01
2018-04-26T04:55:03.056Z,15.27
2018-04-26T04:57:29.490Z,15.49
2018-04-26T04:59:56.064Z,14.97
2018-04-26T05:02:22.535Z,14.34
2018-04-26T05:04:48.942Z,14.33
2018-04-26T05:07:15.484Z,14.37
2018-04-26T05:09:41.906Z,14.89
2018-04-26T05:12:08.347Z,14.91
2018-04-26T05:14:34.828Z,15.45
2018-04-26T05:17:01.251Z,15.49
2018-04-26T05:19:27.624Z,15.38
2018-04-26T05:21:54.051Z,15.54
2018-04-26T05:24:20.607Z,15.59
2018-04-26T05:26:48.083Z,15.93
2018-04-26T05:29:14.631Z,15.87
2018-04-26T05:31:41.109Z,16.22
2018-04-26T05:34:07.453Z,16.05
2018-04-26T05:36:33.978Z,15.84
2018-04-26T05:39:00.417Z,15.78
2018-04-26T05:41:26.815Z,16.05
2018-04-26T05:43:53.345Z,16.68
2018-04-26T05:46:19.805Z,16.72
2018-04-26T05:48:46.260Z,16.38
2018-04-26T05:51:12.975Z,15.94
2018-04-26T05:53:39.510Z,15.90
2018-04-26T05:56:06.684Z,16.14
2018-04-26T05:58:33.165Z,16.61
2018-04-26T06:00:59.718Z,16.42
2018-04-26T06:03:26.272Z,16.20
2018-04-26T06:05:52.838Z,16.31
2018-04-26T06:08:19.231Z,16.06
2018-04-26T06:10:45.658Z,15.96
2018-04-26T06:13:12.176Z,15.98
2018-04-26T06:15:38.559Z,16.26
2018-04-26T06:18:04.936Z,16.56
2018-04-26T06:20:31.365Z,16.73
2018-04-26T06:22:57.755Z,16.66
2018-04-26T06:25:24.257Z,16.93
2018-04-26T06:27:50.702Z,16.65
2018-04-26T06:30:17.412Z,16.88
2018-04-26T06:32:43.875Z,17.00
2018-04-26T06:35:11.937Z,16.77
2018-04-26T06:37:38.395Z,16.54
2018-04-26T06:40:04.882Z,16.88
2018-04-26T06:42:31.354Z,17.24
2018-04-26T06:44:57.906Z,17.76
2018-04-26T06:47:24.413Z,17.64
2018-04-26T06:49:50.827Z,17.51
2018-04-26T06:52:17.305Z,17.94
2018-04-26T06:54:43.783Z,18.13
2018-04-26T06:57:10.286Z,18.17
2018-04-26T06:59:36.642Z,18.05
2018-04-26T07:02:03.022Z,18.10
2018-04-26T07:04:29.515Z,18.38
2018-04-26T07:06:56.994Z,18.39
2018-04-26T07:09:23.437Z,18.51
2018-04-26T07:11:49.933Z,18.85
2018-04-26T07:14:17.072Z,19.13
2018-04-26T07:16:43.561Z,19.09
2018-04-26T07:19:09.941Z,19.09
2018-04-26T07:21:36.321Z,19.03
2018-04-26T07:24:02.740Z,19.26
2018-04-26T07:26:29.487Z,19.70
2018-04-26T07:28:55.967Z,20.22
2018-04-26T07:31:22.365Z,20.55
2018-04-26T07:33:48.751Z,20.57
2018-04-26T07:36:15.192Z,20.95
2018-04-26T07:38:41.566Z,20.71
2018-04-26T07:41:08.272Z,20.78
2018-04-26T07:43:34.988Z,21.20
2018-04-26T07:46:02.116Z,20.75
2018-04-26T07:48:28.544Z,20.87
2018-04-26T07:50:54.977Z,20.90
2018-04-26T07:53:21.412Z,20.98
2018-04-26T07:55:47.957Z,20.54
2018-04-26T07:58:14.373Z,21.30
2018-04-26T08:00:40.807Z,21.55
2018-04-26T08:03:07.371Z,21.31
2018-04-26T08:05:33.850Z,21.66
2018-04-26T08:08:00.238Z,21.69
2018-04-26T08:10:26.751Z,21.73
2018-04-26T08:12:53.263Z,22.06
2018-04-26T08:15:19.817Z,21.59
2018-04-26T08:17:46.754Z,22.20
2018-04-26T08:20:13.308Z,22.56
2018-04-26T08:22:40.645Z,22.82
2018-04-26T08:25:07.138Z,22.71
2018-04-26T08:27:33.561Z,22.45
2018-04-26T08:29:59.960Z,22.06
2018-04-26T08:32:26.402Z,22.12
2018-04-26T08:34:53.120Z,22.58
2018-04-26T08:37:19.689Z,22.74
2018-04-26T08:39:46.161Z,23.22
2018-04-26T08:42:12.532Z,23.58
2018-04-26T08:44:39.319Z,23.72
2018-04-26T08:47:05.919Z,24.62
2018-04-26T08:49:32.435Z,24.68
2018-04-26T08:51:58.830Z,24.41
2018-04-26T08:54:25.385Z,23.85
2018-04-26T08:56:51.815Z,23.46
2018-04-26T08:59:18.369Z,24.07
2018-04-26T09:01:44.889Z,24.58
2018-04-26T09:04:11.312Z,24.74
2018-04-26T09:06:37.847Z,24.81
2018-04-26T09:09:04.380Z,25.13
2018-04-26T09:11:30.741Z,25.61
2018-04-26T09:13:57.152Z,25.76
2018-04-26T09:16:23.689Z,25.44
2018-04-26T09:18:50.101Z,26.30
2018-04-26T09:21:16.615Z,26.40
2018-04-26T09:23:43.059Z,26.96
2018-04-26T09:26:09.569Z,26.81
2018-04-26T09:28:35.934Z,26.46
2018-04-26T09:31:02.431Z,26.67
2018-04-26T09:33:28.876Z,27.02
2018-04-26T09:35:55.314Z,26.96
2018-04-26T09:38:21.784Z,26.83
2018-04-26T09:40:48.134Z,26.84
2018-04-26T09:43:14.557Z,26.93
2018-04-26T09:45:41.081Z,26.47
2018-04-26T09:48:07.457Z,26.61
2018-04-26T09:50:33.940Z,26.71
2018-04-26T09:53:00.305Z,27.59
2018-04-26T09:55:26.633Z,27.50
2018-04-26T09:57:53.093Z,27.12
2018-04-26T10:00:25.688Z,27.59
2018-04-26T10:02:54.088Z,27.59
2018-04-26T10:08:20.815Z,27.69
2018-04-26T10:10:47.294Z,27.30
2018-04-26T10:13:13.655Z,27.23
2018-04-26T10:15:40.181Z,27.16
2018-04-26T10:18:06.586Z,27.47
2018-04-26T10:20:32.941Z,27.46
2018-04-26T10:22:59.411Z,27.14
2018-04-26T10:25:26.144Z,27.51
2018-04-26T10:27:52.643Z,28.08
2018-04-26T10:30:19.093Z,27.93
2018-04-26T10:32:45.571Z,27.55
2018-04-26T10:35:12.014Z,27.38
2018-04-26T10:37:39.575Z,27.72
2018-04-26T10:40:06.103Z,28.30
2018-04-26T10:42:32.754Z,28.45
2018-04-26T10:44:59.264Z,27.89
2018-04-26T10:47:26.030Z,27.94
2018-04-26T10:49:52.866Z,27.98
2018-04-26T10:52:19.329Z,27.81
2018-04-26T10:54:45.913Z,28.12
2018-04-26T10:57:16.714Z,27.94
2018-04-26T10:59:43.299Z,27.80
2018-04-26T11:02:09.822Z,27.45
2018-04-26T11:04:36.261Z,26.22
2018-04-26T11:07:02.765Z,25.48
2018-04-26T11:09:29.223Z,25.43
2018-04-26T11:11:55.674Z,25.50
2018-04-26T11:14:22.117Z,25.50
2018-04-26T11:16:48.728Z,25.66
2018-04-26T11:19:15.204Z,25.47
2018-04-26T11:21:41.707Z,25.13
2018-04-26T11:24:08.165Z,25.13
2018-04-26T11:26:34.824Z,24.94
2018-04-26T11:29:01.344Z,25.00
2018-04-26T11:31:29.523Z,24.19
2018-04-26T11:33:57.069Z,24.12
2018-04-26T11:36:25.460Z,24.02
2018-04-26T11:38:53.834Z,23.95
2018-04-26T11:41:21.494Z,23.91
2018-04-26T11:43:48.446Z,23.81
2018-04-26T11:46:15.061Z,23.63
2018-04-26T11:48:41.631Z,23.53
2018-04-26T11:51:08.574Z,23.65
2018-04-26T11:53:35.082Z,23.74
2018-04-26T11:56:02.821Z,23.80
2018-04-26T11:58:29.220Z,23.67
2018-04-26T12:00:55.642Z,23.53
2018-04-26T12:03:22.249Z,23.47
2018-04-26T12:05:48.596Z,23.57
2018-04-26T12:08:15.163Z,23.70
2018-04-26T12:10:41.740Z,23.73
2018-04-26T12:13:08.355Z,23.55
2018-04-26T12:15:34.747Z,23.63
2018-04-26T12:18:01.276Z,23.52
2018-04-26T12:20:27.792Z,23.66
2018-04-26T12:22:54.247Z,23.66
2018-04-26T12:25:20.739Z,23.71
2018-04-26T12:27:47.241Z,24.01
2018-04-26T12:30:13.704Z,24.02
2018-04-26T12:32:40.245Z,24.18
2018-04-26T12:35:06.739Z,24.39
2018-04-26T12:37:33.318Z,24.35
2018-04-26T12:39:59.875Z,23.97
2018-04-26T12:42:26.385Z,23.63
2018-04-26T12:44:52.867Z,23.79
2018-04-26T12:47:19.453Z,23.86
2018-04-26T12:49:45.891Z,24.02
2018-04-26T12:52:12.351Z,24.15
2018-04-26T12:54:38.797Z,24.40
2018-04-26T12:57:05.313Z,24.44
2018-04-26T12:59:31.791Z,24.33
2018-04-26T13:01:58.502Z,24.51
2018-04-26T13:04:24.972Z,24.66
2018-04-26T13:06:51.493Z,24.99
2018-04-26T13:09:18.022Z,25.22
2018-04-26T13:11:44.410Z,25.68
2018-04-26T13:14:10.885Z,25.91
2018-04-26T13:16:37.369Z,26.34
2018-04-26T13:19:03.828Z,26.32
2018-04-26T13:21:30.395Z,26.32
2018-04-26T13:23:57.079Z,26.15
2018-04-26T13:26:23.516Z,26.11
2018-04-26T13:28:49.906Z,26.13
2018-04-26T13:31:16.478Z,25.98
2018-04-26T13:33:43.293Z,25.89
2018-04-26T13:36:10.891Z,25.89
2018-04-26T13:38:37.882Z,26.10
2018-04-26T13:41:04.315Z,26.10
2018-04-26T13:43:30.974Z,26.26
2018-04-26T13:45:57.582Z,25.77
2018-04-26T13:48:24.137Z,25.42
2018-04-26T13:50:50.509Z,25.28
2018-04-26T13:53:17.063Z,25.30
2018-04-26T13:55:43.462Z,25.21
2018-04-26T13:58:09.851Z,25.33
2018-04-26T14:00:36.559Z,25.37
2018-04-26T14:03:03.019Z,25.61
2018-04-26T14:05:30.198Z,25.74
2018-04-26T14:07:56.748Z,25.70
2018-04-26T14:10:23.673Z,25.88
2018-04-26T14:12:50.120Z,25.76
2018-04-26T14:15:16.722Z,25.82
2018-04-26T14:17:44.080Z,25.68
2018-04-26T14:20:10.877Z,25.64
2018-04-26T14:22:37.442Z,25.75
2018-04-26T14:25:04.002Z,25.57
2018-04-26T14:27:30.660Z,25.30
2018-04-26T14:29:57.159Z,25.13
2018-04-26T14:32:23.824Z,25.07
2018-04-26T14:34:50.290Z,24.86
2018-04-26T14:37:17.462Z,24.91
2018-04-26T14:39:43.948Z,24.84
2018-04-26T14:42:10.437Z,24.76
2018-04-26T14:44:36.919Z,24.53
2018-04-26T14:47:03.462Z,24.33
2018-04-26T14:49:29.865Z,24.40
2018-04-26T14:51:57.538Z,24.17
2018-04-26T14:54:24.057Z,23.88
2018-04-26T14:56:50.576Z,23.79
2018-04-26T14:59:17.045Z,23.86
2018-04-26T15:01:43.404Z,23.75
2018-04-26T15:04:09.830Z,23.69
2018-04-26T15:06:36.326Z,23.54
2018-04-26T15:09:02.840Z,23.48
2018-04-26T15:11:29.321Z,23.43
2018-04-26T15:13:55.763Z,23.32
2018-04-26T15:16:22.405Z,23.06
2018-04-26T15:18:49.014Z,23.02
2018-04-26T15:21:15.594Z,23.07
2018-04-26T15:23:42.128Z,23.09
2018-04-26T15:26:08.557Z,23.01
2018-04-26T15:28:35.095Z,23.10
2018-04-26T15:31:01.477Z,23.06
2018-04-26T15:33:28.827Z,23.01
2018-04-26T15:35:55.242Z,23.04
2018-04-26T15:38:22.101Z,22.97
2018-04-26T15:40:48.562Z,22.81
2018-04-26T15:43:15.112Z,22.77
2018-04-26T15:45:42.408Z,22.68
2018-04-26T15:48:08.779Z,22.67
2018-04-26T15:50:51.744Z,22.50
2018-04-26T15:53:30.691Z,22.39
2018-04-26T15:56:09.409Z,22.36
2018-04-26T16:02:18.211Z,21.96
2018-04-26T16:04:56.969Z,21.94
2018-04-26T16:07:50.639Z,21.75
2018-04-26T16:10:29.481Z,21.69
2018-04-26T16:13:14.438Z,21.61
2018-04-26T16:15:59.349Z,21.49
2018-04-26T16:18:42.352Z,21.52
2018-04-26T16:21:27.403Z,21.41
2018-04-26T16:24:06.322Z,21.37
2018-04-26T16:26:51.391Z,21.19
2018-04-26T16:29:36.060Z,21.12
2018-04-26T16:32:20.762Z,21.07
2018-04-26T16:34:59.415Z,21.08
2018-04-26T16:37:44.300Z,20.96
2018-04-26T16:40:11.129Z,20.78
2018-04-26T16:42:37.529Z,20.81
2018-04-26T16:45:04.015Z,20.71
2018-04-26T16:47:34.247Z,20.64
2018-04-26T16:50:00.689Z,20.57
2018-04-26T16:52:27.275Z,20.45
2018-04-26T16:54:53.783Z,20.25
2018-04-26T16:57:20.216Z,20.38
2018-04-26T16:59:46.845Z,20.25
2018-04-26T17:02:13.580Z,20.11
2018-04-26T17:04:41.986Z,20.03
2018-04-26T17:07:08.567Z,20.01
2018-04-26T17:09:35.090Z,19.93
2018-04-26T17:12:01.483Z,19.88
2018-04-26T17:14:27.899Z,19.88
2018-04-26T17:16:54.500Z,19.68
2018-04-26T17:19:21.968Z,19.72
2018-04-26T17:21:48.421Z,19.56
2018-04-26T17:24:14.801Z,19.63
2018-04-26T17:26:41.454Z,19.59
2018-04-26T17:29:08.104Z,19.39
2018-04-26T17:31:35.197Z,19.30
2018-04-26T17:34:01.837Z,19.24
2018-04-26T17:36:28.294Z,19.32
2018-04-26T17:38:54.818Z,19.33
2018-04-26T17:41:21.243Z,19.29
2018-04-26T17:43:47.675Z,19.24
2018-04-26T17:46:14.166Z,19.18
2018-04-26T17:48:41.684Z,19.17
2018-04-26T17:51:08.201Z,19.17
2018-04-26T17:53:34.681Z,19.00
2018-04-26T17:56:01.070Z,19.02
2018-04-26T17:58:27.750Z,19.04
2018-04-26T18:00:54.202Z,18.96
2018-04-26T18:03:20.701Z,18.99
2018-04-26T18:05:47.138Z,18.90
2018-04-26T18:08:13.632Z,18.81
2018-04-26T18:10:40.237Z,18.84
2018-04-26T18:13:06.676Z,18.72
2018-04-26T18:15:33.418Z,18.61
2018-04-26T18:17:59.806Z,18.58
2018-04-26T18:20:26.188Z,18.56
2018-04-26T18:22:52.684Z,18.55
2018-04-26T18:25:19.133Z,18.42
2018-04-26T18:27:45.740Z,18.33
2018-04-26T18:30:12.344Z,18.26
2018-04-26T18:32:38.846Z,18.21
2018-04-26T18:35:05.332Z,18.17
2018-04-26T18:37:32.011Z,18.08
2018-04-26T18:39:58.557Z,18.02
2018-04-26T18:42:24.961Z,18.09
2018-04-26T18:44:51.465Z,18.00
2018-04-26T18:47:18.188Z,18.10
2018-04-26T18:49:44.655Z,18.18
2018-04-26T18:52:11.150Z,18.05
2018-04-26T18:54:37.689Z,18.00
2018-04-26T18:57:04.280Z,17.94
2018-04-26T18:59:30.750Z,17.99
2018-04-26T19:01:57.613Z,17.87
2018-04-26T19:04:24.199Z,17.78
2018-04-26T19:06:50.889Z,17.72
2018-04-26T19:09:17.273Z,17.83
2018-04-26T19:11:43.734Z,17.83
2018-04-26T19:14:10.286Z,17.87
2018-04-26T19:16:36.872Z,17.84
2018-04-26T19:19:03.486Z,17.81
2018-04-26T19:21:30.019Z,17.53
2018-04-26T19:23:56.496Z,17.50
2018-04-26T19:26:23.204Z,17.33
2018-04-26T19:28:49.930Z,17.00
2018-04-26T19:31:16.405Z,17.10
2018-04-26T19:33:43.023Z,16.94
2018-04-26T19:36:09.577Z,16.76
2018-04-26T19:38:36.186Z,16.62
2018-04-26T19:41:02.741Z,16.44
2018-04-26T19:43:29.378Z,16.10
2018-04-26T19:45:55.915Z,15.86
2018-04-26T19:48:23.527Z,15.71
2018-04-26T19:50:50.486Z,15.55
2018-04-26T19:53:17.490Z,15.38
2018-04-26T19:55:44.155Z,15.25
2018-04-26T19:58:10.938Z,15.26
2018-04-26T20:00:37.595Z,15.12
2018-04-26T20:03:04.285Z,14.87
2018-04-26T20:05:31.575Z,14.88
2018-04-26T20:07:58.540Z,14.87
2018-04-26T20:10:25.166Z,14.81
2018-04-26T20:12:51.917Z,14.70
2018-04-26T20:15:18.513Z,14.58
2018-04-26T20:17:45.097Z,14.45
2018-04-26T20:20:11.648Z,14.42
2018-04-26T20:22:38.412Z,14.36
2018-04-26T20:25:05.065Z,14.16
2018-04-26T20:27:31.893Z,14.01
2018-04-26T20:29:58.694Z,13.97
2018-04-26T20:32:25.200Z,13.96
2018-04-26T20:34:51.787Z,13.89
2018-04-26T20:37:18.284Z,13.80
2018-04-26T20:39:44.825Z,13.91
2018-04-26T20:42:11.452Z,13.74
2018-04-26T20:44:43.948Z,13.67
2018-04-26T20:47:10.522Z,13.61
2018-04-26T20:49:37.031Z,13.72
2018-04-26T20:52:03.654Z,13.57
2018-04-26T20:54:30.337Z,13.50
2018-04-26T20:56:56.787Z,13.46
2018-04-26T20:59:23.404Z,13.57
2018-04-26T21:01:50.094Z,13.43
2018-04-26T21:04:16.613Z,13.33
2018-04-26T21:06:43.091Z,13.25
2018-04-26T21:09:09.744Z,13.11
2018-04-26T21:11:36.265Z,13.02
2018-04-26T21:14:02.947Z,12.99
2018-04-26T21:16:29.683Z,12.94
2018-04-26T21:18:56.405Z,12.86
2018-04-26T21:21:23.014Z,12.85
2018-04-26T21:23:49.578Z,12.88
2018-04-26T21:26:16.101Z,12.88
2018-04-26T21:28:42.741Z,12.84
2018-04-26T21:31:09.169Z,12.78
2018-04-26T21:33:35.784Z,12.73
2018-04-26T21:36:02.302Z,12.64
2018-04-26T21:38:28.935Z,12.62
2018-04-26T21:40:55.600Z,12.56
2018-04-26T21:43:22.184Z,12.49
2018-04-26T21:45:48.928Z,12.41
2018-04-26T21:48:15.775Z,12.34
2018-04-26T21:50:48.464Z,12.29
2018-04-26T21:53:21.352Z,12.36
2018-04-26T21:55:53.969Z,12.29
2018-04-26T21:58:26.569Z,12.24
2018-04-26T22:00:59.153Z,12.29
2018-04-26T22:03:28.639Z,12.15
2018-04-26T22:05:55.236Z,12.15
2018-04-26T22:08:21.775Z,12.12
2018-04-26T22:10:48.286Z,12.03
2018-04-26T22:13:14.868Z,11.99
2018-04-26T22:15:41.378Z,11.95
2018-04-26T22:18:07.878Z,11.98
2018-04-26T22:20:34.528Z,11.95
2018-04-26T22:23:00.961Z,11.93
2018-04-26T22:25:27.384Z,11.90
2018-04-26T22:27:54.885Z,11.87
2018-04-26T22:30:21.406Z,11.83
2018-04-26T22:32:47.880Z,11.80
2018-04-26T22:35:14.370Z,11.80
2018-04-26T22:37:40.906Z,11.83
2018-04-26T22:40:07.402Z,11.80
2018-04-26T22:42:33.773Z,11.77
2018-04-26T22:45:00.272Z,11.75
2018-04-26T22:47:26.872Z,11.72
2018-04-26T22:49:53.259Z,11.77
2018-04-26T22:52:19.725Z,11.73
2018-04-26T22:54:46.216Z,11.70
2018-04-26T22:57:12.719Z,11.70
2018-04-26T22:59:39.122Z,11.68
2018-04-26T23:02:05.739Z,11.71
2018-04-26T23:04:32.221Z,11.77
2018-04-26T23:06:58.685Z,11.78
2018-04-26T23:09:25.248Z,11.80
2018-04-26T23:11:51.652Z,11.76
2018-04-26T23:14:18.040Z,11.92
2018-04-26T23:16:44.465Z,11.86
2018-04-26T23:19:10.909Z,11.75
2018-04-26T23:21:37.521Z,11.68
2018-04-26T23:24:04.037Z,11.60
2018-04-26T23:26:30.464Z,11.56
2018-04-26T23:28:56.933Z,11.54
2018-04-26T23:31:23.553Z,11.52
2018-04-26T23:33:49.977Z,11.46
2018-04-26T23:36:16.467Z,11.41
2018-04-26T23:38:42.900Z,11.39
2018-04-26T23:41:09.301Z,11.33
2018-04-26T23:43:35.692Z,11.31
2018-04-26T23:46:02.318Z,11.29
2018-04-26T23:48:28.720Z,11.24
2018-04-26T23:50:55.123Z,11.21
2018-04-26T23:53:21.708Z,11.19
2018-04-26T23:55:48.083Z,11.15
2018-04-26T23:58:14.555Z,11.14
